Jill Reinauer — WCW9655 — position and weather

sailwx.info

Track history (hours):
 
Tides and Currents Weather Stations Pressure Air Temp Water Temp Dewpoint Dewpoint Depression Visibility Wind Speed Wind Dir Waves Ship Positions

Jill Reinauer

Owner: REINAUER TRANSPORTATION CO.,LLC., STATEN ISLAND, NY. More information available from US FCC via Universal Licensing System and Coast Guard Vessel Documentation Center.

Last reported at 2018-Aug-20 19:51 UTC. Time now 2018-Aug-21 04:21 UTC.
Position N 40°39' W 074°11'.

Length 30 m; draft 4 m.

Type: Tug. MMSI: 366727190.

Date/timePositionNaut miles runAvg speedWind from/ knotsBaromVisibWave heightAir tempDewpointWater temp
2018-Aug-20 19:51N 40°39' W 074°11'3 7.4
2018-Aug-20 19:30N 40°40' W 074°08'3 7.1
2018-Aug-20 19:03N 40°43' W 074°07'0 0.0
2018-Aug-20 19:00N 40°43' W 074°07'1 1.1
2018-Aug-20 18:30N 40°42' W 074°07'4 8.1
2018-Aug-20 18:03N 40°39' W 074°09'0 8.3
2018-Aug-20 18:00N 40°39' W 074°09'5 9.3
2018-Aug-20 17:30N 40°40' W 074°03'2 3.5
2018-Aug-20 17:03N 40°40' W 074°01'0 0.1
2018-Aug-20 17:00N 40°40' W 074°01'0 0.0
2018-Aug-20 16:30N 40°40' W 074°01'0 0.0
2018-Aug-20 16:03N 40°40' W 074°01'0 0.0
2018-Aug-20 16:00N 40°40' W 074°01'0 0.0
2018-Aug-20 15:30N 40°40' W 074°01'0 0.0
2018-Aug-20 15:03N 40°40' W 074°01'0 0.0
2018-Aug-20 15:00N 40°40' W 074°01'0 0.0
2018-Aug-20 14:03N 40°40' W 074°01'0 0.0
2018-Aug-20 14:00N 40°40' W 074°01'0 0.0
2018-Aug-20 13:30N 40°40' W 074°01'0 0.0
2018-Aug-20 13:03N 40°40' W 074°01'0 0.1
2018-Aug-20 13:00N 40°40' W 074°01'0 0.0
2018-Aug-20 12:30N 40°40' W 074°01'0 0.2
2018-Aug-20 12:03N 40°40' W 074°01'0 0.1
2018-Aug-20 12:00N 40°40' W 074°01'1 1.3
2018-Aug-20 11:30N 40°41' W 074°01'1 1.3
2018-Aug-20 11:03N 40°41' W 074°01'0 0.3
2018-Aug-20 11:00N 40°41' W 074°01'2 4.6
2018-Aug-20 10:30N 40°40' W 074°03'3 6.3
2018-Aug-20 10:04N 40°39' W 074°06'110.9
2018-Aug-20 10:00N 40°39' W 074°07'4 8.2
2018-Aug-20 09:30N 40°37' W 074°12'0 0.1
2018-Aug-20 08:52N 40°37' W 074°12'1 2.2
2018-Aug-20 08:24N 40°38' W 074°12'1 2.0
2018-Aug-20 08:03N 40°37' W 074°12'0 9.8
2018-Aug-20 08:00N 40°37' W 074°12'1 2.3
2018-Aug-20 07:30N 40°36' W 074°12'0 0.0
2018-Aug-20 06:57N 40°36' W 074°12'0 0.0
2018-Aug-20 06:05N 40°36' W 074°12'0 0.0
2018-Aug-20 05:54N 40°36' W 074°12'0 0.0
2018-Aug-20 03:21N 40°36' W 074°12'0 0.0
2018-Aug-20 02:58N 40°36' W 074°12'3 7.4
2018-Aug-20 02:30N 40°39' W 074°10'3 5.4
2018-Aug-20 02:00N 40°39' W 074°07'0 0.1
2018-Aug-20 01:30N 40°39' W 074°07'2 3.7
2018-Aug-20 01:01N 40°39' W 074°04'3 5.3
2018-Aug-20 00:30N 40°40' W 074°01'0 0.0
2018-Aug-20 00:00N 40°40' W 074°01'0 0.0
2018-Aug-19 23:30N 40°40' W 074°01'0 0.0
2018-Aug-19 23:00N 40°40' W 074°01'0 0.0
2018-Aug-19 22:30N 40°40' W 074°01'0 0.0
2018-Aug-19 22:00N 40°40' W 074°01'0 0.0
2018-Aug-19 21:30N 40°40' W 074°01'0 0.0
2018-Aug-19 21:00N 40°40' W 074°01'0 0.0
2018-Aug-19 20:30N 40°40' W 074°01'0 0.1
2018-Aug-19 20:00N 40°40' W 074°01'0 0.0
2018-Aug-19 19:30N 40°40' W 074°01'0 0.1
2018-Aug-19 19:00N 40°40' W 074°01'0 0.0
2018-Aug-19 18:30N 40°40' W 074°01'0 0.0
2018-Aug-19 18:00N 40°40' W 074°01'0 0.0
2018-Aug-19 17:30N 40°40' W 074°01'0 0.0
2018-Aug-19 17:00N 40°40' W 074°01'0 0.0
2018-Aug-19 16:28N 40°40' W 074°01'0 0.0
2018-Aug-19 16:00N 40°40' W 074°01'0 0.0
2018-Aug-19 15:30N 40°40' W 074°01'0 0.0
2018-Aug-19 15:00N 40°40' W 074°01'0 0.0
2018-Aug-19 14:30N 40°40' W 074°01'0 0.0
2018-Aug-19 14:00N 40°40' W 074°01'0 0.0
2018-Aug-19 13:30N 40°40' W 074°01'0 0.0
2018-Aug-19 13:00N 40°40' W 074°01'0 0.0
2018-Aug-19 12:30N 40°40' W 074°01'0 0.0
2018-Aug-19 12:00N 40°40' W 074°01'0 0.0
2018-Aug-19 11:30N 40°40' W 074°01'0 0.0
2018-Aug-19 11:00N 40°40' W 074°01'0 0.0
2018-Aug-19 10:30N 40°40' W 074°01'0 0.0
2018-Aug-19 10:00N 40°40' W 074°01'0 0.0
2018-Aug-19 09:30N 40°40' W 074°01'0 0.0
2018-Aug-19 09:00N 40°40' W 074°01'0 0.0
2018-Aug-19 08:30N 40°40' W 074°01'0 0.0
2018-Aug-19 08:00N 40°40' W 074°01'0 0.0
2018-Aug-19 07:30N 40°40' W 074°01'0 0.0
2018-Aug-19 07:00N 40°40' W 074°01'0 0.0
2018-Aug-19 06:30N 40°40' W 074°01'0 0.0
2018-Aug-19 06:00N 40°40' W 074°01'0 0.0
2018-Aug-19 05:30N 40°40' W 074°01'0 0.0
2018-Aug-19 05:00N 40°40' W 074°01'0 0.0
2018-Aug-19 04:30N 40°40' W 074°01'0 0.3
2018-Aug-19 04:00N 40°40' W 074°01'0 0.0
2018-Aug-19 03:30N 40°40' W 074°01'0 0.0
2018-Aug-19 03:00N 40°40' W 074°01'0 0.0
2018-Aug-19 02:30N 40°40' W 074°01'0 0.0
2018-Aug-19 02:00N 40°40' W 074°01'0 0.0
2018-Aug-19 01:30N 40°40' W 074°01'0 0.0
2018-Aug-19 01:00N 40°40' W 074°01'0 0.0
2018-Aug-19 00:30N 40°40' W 074°01'0 0.0
2018-Aug-19 00:00N 40°40' W 074°01'0 0.0
2018-Aug-18 23:30N 40°40' W 074°01'0 0.0
2018-Aug-18 23:00N 40°40' W 074°01'1 1.9
2018-Aug-18 22:30N 40°40' W 074°02'1 1.2
2018-Aug-18 22:00N 40°39' W 074°03'3 6.1
2018-Aug-18 21:30N 40°42' W 074°00'3 6.5
2018-Aug-18 21:00N 40°45' W 073°58'3 0.7
2018-Aug-18 17:04N 40°47' W 073°56'213.1
2018-Aug-18 16:57N 40°45' W 073°57'510.4
2018-Aug-18 16:30N 40°42' W 074°01'4 8.6
2018-Aug-18 16:01N 40°39' W 074°05'2 3.8
2018-Aug-18 15:30N 40°38' W 074°08'0 0.0
2018-Aug-18 14:48N 40°38' W 074°08'0 0.0
2018-Aug-18 14:30N 40°38' W 074°08'0 0.0
2018-Aug-18 14:00N 40°38' W 074°08'0 0.0
2018-Aug-18 13:30N 40°38' W 074°08'0 0.0
2018-Aug-18 13:00N 40°38' W 074°08'0 0.0
2018-Aug-18 12:30N 40°38' W 074°08'0 0.0
2018-Aug-18 12:00N 40°38' W 074°08'0 0.0
2018-Aug-18 11:30N 40°38' W 074°08'0 0.0
2018-Aug-18 11:00N 40°38' W 074°08'0 0.0
2018-Aug-18 10:30N 40°38' W 074°08'0 0.0
2018-Aug-18 10:00N 40°38' W 074°08'0 0.0
2018-Aug-18 09:30N 40°38' W 074°08'0 0.0
2018-Aug-18 09:00N 40°38' W 074°08'0 0.0
2018-Aug-18 08:30N 40°38' W 074°08'0 0.0
2018-Aug-18 08:00N 40°38' W 074°08'0 0.0
2018-Aug-18 07:30N 40°38' W 074°08'0 0.0
2018-Aug-18 07:00N 40°38' W 074°08'0 0.0
2018-Aug-18 06:30N 40°38' W 074°08'0 0.0
2018-Aug-18 06:00N 40°38' W 074°08'0 0.0
2018-Aug-18 05:30N 40°38' W 074°08'0 0.0
2018-Aug-18 05:00N 40°38' W 074°08'0 0.0
2018-Aug-18 04:30N 40°38' W 074°08'0 0.0
2018-Aug-18 04:00N 40°38' W 074°08'0 0.0
2018-Aug-18 03:30N 40°38' W 074°08'0 0.0
2018-Aug-18 03:00N 40°38' W 074°08'0 0.0
2018-Aug-18 02:30N 40°38' W 074°08'0 0.0
2018-Aug-18 02:00N 40°38' W 074°08'0 0.0
2018-Aug-18 01:30N 40°38' W 074°08'0 0.0
2018-Aug-18 00:59N 40°38' W 074°08'0 0.2
2018-Aug-18 00:30N 40°39' W 074°08'0 0.2
2018-Aug-18 00:00N 40°38' W 074°08'0 0.0
2018-Aug-17 23:30N 40°38' W 074°08'0 0.0
2018-Aug-17 23:00N 40°38' W 074°08'0 0.0
2018-Aug-17 22:27N 40°38' W 074°08'0 0.0
2018-Aug-17 22:00N 40°38' W 074°08'2 3.5
2018-Aug-17 21:31N 40°39' W 074°05'4 7.2
2018-Aug-17 21:00N 40°40' W 074°01'0 0.2
2018-Aug-17 20:30N 40°40' W 074°01'0 0.0
2018-Aug-17 20:00N 40°40' W 074°01'0 0.0
2018-Aug-17 19:30N 40°40' W 074°01'1 1.1
2018-Aug-17 19:00N 40°41' W 074°02'3 5.7
2018-Aug-17 18:30N 40°39' W 074°05'2 4.3
2018-Aug-17 17:59N 40°38' W 074°08'0 0.1
2018-Aug-17 17:30N 40°38' W 074°08'0 0.0
2018-Aug-17 17:00N 40°38' W 074°08'0 0.1
2018-Aug-17 16:28N 40°38' W 074°08'0 0.0
2018-Aug-17 15:53N 40°38' W 074°08'0 0.0
2018-Aug-17 15:19N 40°38' W 074°08'2 7.0
2018-Aug-17 15:00N 40°39' W 074°05'3 6.4
2018-Aug-17 14:30N 40°40' W 074°01'0 0.2
2018-Aug-17 13:30N 40°40' W 074°01'0 0.2
2018-Aug-17 13:00N 40°40' W 074°01'0 0.6
2018-Aug-17 12:30N 40°40' W 074°01'0 0.0
2018-Aug-17 12:00N 40°40' W 074°01'0 0.0
2018-Aug-17 11:31N 40°40' W 074°01'0 0.0
2018-Aug-17 11:00N 40°40' W 074°01'0 0.0
2018-Aug-17 10:30N 40°40' W 074°01'0 0.0
2018-Aug-17 10:00N 40°40' W 074°01'0 0.0
2018-Aug-17 09:30N 40°40' W 074°01'0 0.0
2018-Aug-17 09:00N 40°40' W 074°01'0 0.0
2018-Aug-17 08:30N 40°40' W 074°01'0 0.0
2018-Aug-17 08:00N 40°40' W 074°01'0 0.0
2018-Aug-17 07:30N 40°40' W 074°01'0 0.0
2018-Aug-17 07:00N 40°40' W 074°01'0 0.0
2018-Aug-17 06:30N 40°40' W 074°01'0 0.0
2018-Aug-17 06:00N 40°40' W 074°01'0 0.0
2018-Aug-17 05:30N 40°40' W 074°01'0 0.0
2018-Aug-17 05:00N 40°40' W 074°01'0 0.0
2018-Aug-17 04:30N 40°40' W 074°01'0 0.0
2018-Aug-17 04:00N 40°40' W 074°01'0 0.0
2018-Aug-17 03:30N 40°40' W 074°01'0 0.0
2018-Aug-17 03:00N 40°40' W 074°01'0 0.0
2018-Aug-17 02:30N 40°40' W 074°01'0 0.0
2018-Aug-17 02:00N 40°40' W 074°01'0 0.0
2018-Aug-17 01:30N 40°40' W 074°01'0 0.0
2018-Aug-17 01:00N 40°40' W 074°01'0 0.0
2018-Aug-17 00:30N 40°40' W 074°01'0 0.0
2018-Aug-17 00:00N 40°40' W 074°01'0 0.0
2018-Aug-16 23:30N 40°40' W 074°01'0 0.0
2018-Aug-16 23:00N 40°40' W 074°01'0 0.0
2018-Aug-16 22:30N 40°40' W 074°01'0 0.0
2018-Aug-16 22:00N 40°40' W 074°01'0 0.0
2018-Aug-16 21:30N 40°40' W 074°01'0 0.0
2018-Aug-16 21:00N 40°40' W 074°01'0 0.0
2018-Aug-16 20:30N 40°40' W 074°01'0 0.0
2018-Aug-16 20:00N 40°40' W 074°01'0 0.0
2018-Aug-16 19:30N 40°40' W 074°01'0 0.0
2018-Aug-16 19:00N 40°40' W 074°01'0 0.0
2018-Aug-16 18:30N 40°40' W 074°01'0 0.0
2018-Aug-16 18:00N 40°40' W 074°01'0 0.0
2018-Aug-16 17:30N 40°40' W 074°01'0 0.0
2018-Aug-16 17:00N 40°40' W 074°01'0 0.0
2018-Aug-16 16:30N 40°40' W 074°01'0 0.0
2018-Aug-16 16:00N 40°40' W 074°01'0 0.0
2018-Aug-16 15:30N 40°40' W 074°01'0 0.0
2018-Aug-16 15:00N 40°40' W 074°01'0 0.0
2018-Aug-16 14:30N 40°40' W 074°01'0 0.0
2018-Aug-16 14:00N 40°40' W 074°01'0 0.0
2018-Aug-16 13:30N 40°40' W 074°01'0 0.1
2018-Aug-16 13:00N 40°40' W 074°01'0 0.0
2018-Aug-16 12:30N 40°40' W 074°01'0 0.0
2018-Aug-16 12:00N 40°40' W 074°01'3 5.1
2018-Aug-16 11:31N 40°39' W 074°04'1 1.5
2018-Aug-16 11:00N 40°39' W 074°05'0 0.4
2018-Aug-16 10:30N 40°39' W 074°05'2 4.4
2018-Aug-16 10:00N 40°38' W 074°08'0 0.0
2018-Aug-16 09:28N 40°38' W 074°08'0 0.0
2018-Aug-16 08:36N 40°38' W 074°08'0 0.0
2018-Aug-16 08:27N 40°38' W 074°08'0 0.0
2018-Aug-16 07:48N 40°38' W 074°08'0 0.0
2018-Aug-16 07:30N 40°38' W 074°08'0 0.0
2018-Aug-16 06:57N 40°38' W 074°08'0 0.0
2018-Aug-16 06:30N 40°38' W 074°08'0 0.0
2018-Aug-16 05:48N 40°38' W 074°08'0 0.0
2018-Aug-16 05:27N 40°38' W 074°08'1 2.1
2018-Aug-16 05:00N 40°39' W 074°07'0 0.1
2018-Aug-16 04:30N 40°39' W 074°07'0 0.0
2018-Aug-16 04:00N 40°39' W 074°07'1 2.0
2018-Aug-16 03:30N 40°38' W 074°08'0 0.0
2018-Aug-16 02:58N 40°38' W 074°08'0 0.0
2018-Aug-16 02:24N 40°38' W 074°08'0 0.0
2018-Aug-16 02:00N 40°38' W 074°08'0 0.0
2018-Aug-16 01:30N 40°38' W 074°08'0 0.0
2018-Aug-16 00:24N 40°38' W 074°08'0 0.2
2018-Aug-16 00:00N 40°39' W 074°08'0 0.1
2018-Aug-15 23:27N 40°38' W 074°08'0 0.0
2018-Aug-15 22:54N 40°38' W 074°08'1 1.9
2018-Aug-15 22:29N 40°39' W 074°07'0 0.4
2018-Aug-15 22:00N 40°39' W 074°07'1 1.4
2018-Aug-15 21:30N 40°38' W 074°08'0 0.0
2018-Aug-15 20:59N 40°38' W 074°08'0 0.0
2018-Aug-15 20:30N 40°38' W 074°08'0 0.0
2018-Aug-15 20:00N 40°38' W 074°08'0 0.0
2018-Aug-15 19:30N 40°38' W 074°08'1 2.6
2018-Aug-15 18:59N 40°39' W 074°06'0 0.1
2018-Aug-15 18:24N 40°39' W 074°06'1 3.3
2018-Aug-15 18:00N 40°38' W 074°08'0 0.0
2018-Aug-15 17:30N 40°38' W 074°08'0 0.0
2018-Aug-15 16:54N 40°38' W 074°08'0 0.0
2018-Aug-15 16:21N 40°38' W 074°08'0 0.0
2018-Aug-15 16:00N 40°38' W 074°08'0 0.0
2018-Aug-15 15:27N 40°38' W 074°08'0 0.0
2018-Aug-15 15:00N 40°38' W 074°08'0 0.0
2018-Aug-15 14:30N 40°38' W 074°08'2 0.2
2018-Aug-15 00:45N 40°39' W 074°11'2 9.3
2018-Aug-15 00:31N 40°39' W 074°08'0 0.2
2018-Aug-15 00:00N 40°38' W 074°08'0 0.0
2018-Aug-14 23:30N 40°38' W 074°08'0 0.1
2018-Aug-14 22:59N 40°38' W 074°08'0 0.0
2018-Aug-14 22:14N 40°38' W 074°08'0 0.0
2018-Aug-14 21:59N 40°38' W 074°08'0 0.0
2018-Aug-14 21:25N 40°38' W 074°08'0 0.0
2018-Aug-14 20:44N 40°38' W 074°08'0 0.0
2018-Aug-14 20:30N 40°38' W 074°08'0 0.0
2018-Aug-14 20:00N 40°38' W 074°08'0 0.0
2018-Aug-14 19:30N 40°38' W 074°08'0 0.0
2018-Aug-14 19:00N 40°38' W 074°08'0 0.0
2018-Aug-14 18:30N 40°38' W 074°08'0 0.0
2018-Aug-14 18:00N 40°38' W 074°08'0 0.0
2018-Aug-14 17:31N 40°38' W 074°08'0 0.0
2018-Aug-14 17:00N 40°38' W 074°08'4 6.8
2018-Aug-14 16:30N 40°37' W 074°12'0 0.0
2018-Aug-13 00:09N 40°37' W 074°12'0 0.9
2018-Aug-12 23:40N 40°38' W 074°12'2 0.4
2018-Aug-12 19:28N 40°36' W 074°12'0 0.0
2018-Aug-12 18:59N 40°36' W 074°12'2 3.9
2018-Aug-12 18:26N 40°38' W 074°12'3 8.2
2018-Aug-12 18:00N 40°39' W 074°08'3 5.6
2018-Aug-12 17:30N 40°39' W 074°11'3 1.1
2018-Aug-12 14:56N 40°36' W 074°12'0 0.0
2018-Aug-12 14:25N 40°36' W 074°12'0 0.0
2018-Aug-12 14:01N 40°36' W 074°12'0 0.0
2018-Aug-12 13:27N 40°36' W 074°12'0 0.0
2018-Aug-12 12:48N 40°36' W 074°12'0 0.0
2018-Aug-12 12:17N 40°36' W 074°12'0 0.0
2018-Aug-12 11:55N 40°36' W 074°12'0 0.0
2018-Aug-12 11:19N 40°36' W 074°12'0 0.0
2018-Aug-12 11:00N 40°36' W 074°12'4 1.0
2018-Aug-12 06:36N 40°32' W 074°15'0 0.2
2018-Aug-12 03:42N 40°33' W 074°15'3 8.8
2018-Aug-12 03:23N 40°35' W 074°13'4 8.8
2018-Aug-12 02:59N 40°38' W 074°12'3 6.6
2018-Aug-12 02:30N 40°38' W 074°08'0 0.1
2018-Aug-12 01:56N 40°38' W 074°08'0 0.0
2018-Aug-12 01:30N 40°38' W 074°08'0 0.0
2018-Aug-12 01:00N 40°38' W 074°08'0 0.0
2018-Aug-12 00:30N 40°38' W 074°08'0 0.0
2018-Aug-12 00:00N 40°38' W 074°08'0 0.0
2018-Aug-11 23:30N 40°38' W 074°08'0 0.0
2018-Aug-11 23:00N 40°38' W 074°08'0 0.0
2018-Aug-11 22:30N 40°38' W 074°08'0 0.0
2018-Aug-11 22:00N 40°38' W 074°08'0 0.0
2018-Aug-11 21:30N 40°38' W 074°08'0 0.0
2018-Aug-11 21:00N 40°38' W 074°08'0 0.0
2018-Aug-11 20:30N 40°38' W 074°08'0 0.0
2018-Aug-11 20:00N 40°38' W 074°08'0 0.0
2018-Aug-11 19:28N 40°38' W 074°08'0 0.0
2018-Aug-11 19:00N 40°38' W 074°08'0 0.1
2018-Aug-11 18:30N 40°39' W 074°08'0 0.1
2018-Aug-11 17:58N 40°38' W 074°08'0 0.0
2018-Aug-11 17:28N 40°38' W 074°08'0 0.0
2018-Aug-11 16:59N 40°38' W 074°08'0 0.0
2018-Aug-11 16:27N 40°38' W 074°08'0 0.0
2018-Aug-11 15:59N 40°38' W 074°08'1 1.4
2018-Aug-11 15:30N 40°38' W 074°09'4 0.6
2018-Aug-11 09:23N 40°36' W 074°12'1 1.4
2018-Aug-11 08:56N 40°36' W 074°12'0 0.1
2018-Aug-11 08:30N 40°36' W 074°12'0 0.0
2018-Aug-11 07:57N 40°36' W 074°12'1 0.2
2018-Aug-11 03:44N 40°37' W 074°12'2 8.5
2018-Aug-11 03:30N 40°39' W 074°10'4 7.5
2018-Aug-11 03:00N 40°39' W 074°05'4 7.3
2018-Aug-11 02:30N 40°40' W 074°01'0 0.1
2018-Aug-11 02:00N 40°40' W 074°01'0 0.0
2018-Aug-11 01:30N 40°40' W 074°01'0 0.3
2018-Aug-11 01:01N 40°40' W 074°01'2 4.6
2018-Aug-11 00:30N 40°39' W 074°04'2 4.2
2018-Aug-10 23:59N 40°39' W 074°06'0 0.0
2018-Aug-10 23:31N 40°39' W 074°06'1 2.1
2018-Aug-10 23:00N 40°38' W 074°08'0 0.1
2018-Aug-10 22:30N 40°38' W 074°08'0 0.0
2018-Aug-10 22:00N 40°38' W 074°08'0 0.5
2018-Aug-10 21:30N 40°39' W 074°08'4 7.0
2018-Aug-10 21:00N 40°37' W 074°12'  
Track history (hours):
 
Tides and Currents Weather Stations Pressure Air Temp Water Temp Dewpoint Dewpoint Depression Visibility Wind Speed Wind Dir Waves Ship Positions

Jill Reinauer

Owner: REINAUER TRANSPORTATION CO.,LLC., STATEN ISLAND, NY. More information available from US FCC via Universal Licensing System and Coast Guard Vessel Documentation Center.

Last reported at 2018-Aug-20 19:51 UTC. Time now 2018-Aug-21 04:21 UTC.
Position N 40°39' W 074°11'.

Length 30 m; draft 4 m.

Type: Tug. MMSI: 366727190.

Date/timePositionNaut miles runAvg speedWind from/ knotsBaromVisibWave heightAir tempDewpointWater temp
2018-Aug-20 19:51N 40°39' W 074°11'3 7.4
2018-Aug-20 19:30N 40°40' W 074°08'3 7.1
2018-Aug-20 19:03N 40°43' W 074°07'0 0.0
2018-Aug-20 19:00N 40°43' W 074°07'1 1.1
2018-Aug-20 18:30N 40°42' W 074°07'4 8.1
2018-Aug-20 18:03N 40°39' W 074°09'0 8.3
2018-Aug-20 18:00N 40°39' W 074°09'5 9.3
2018-Aug-20 17:30N 40°40' W 074°03'2 3.5
2018-Aug-20 17:03N 40°40' W 074°01'0 0.1
2018-Aug-20 17:00N 40°40' W 074°01'0 0.0
2018-Aug-20 16:30N 40°40' W 074°01'0 0.0
2018-Aug-20 16:03N 40°40' W 074°01'0 0.0
2018-Aug-20 16:00N 40°40' W 074°01'0 0.0
2018-Aug-20 15:30N 40°40' W 074°01'0 0.0
2018-Aug-20 15:03N 40°40' W 074°01'0 0.0
2018-Aug-20 15:00N 40°40' W 074°01'0 0.0
2018-Aug-20 14:03N 40°40' W 074°01'0 0.0
2018-Aug-20 14:00N 40°40' W 074°01'0 0.0
2018-Aug-20 13:30N 40°40' W 074°01'0 0.0
2018-Aug-20 13:03N 40°40' W 074°01'0 0.1
2018-Aug-20 13:00N 40°40' W 074°01'0 0.0
2018-Aug-20 12:30N 40°40' W 074°01'0 0.2
2018-Aug-20 12:03N 40°40' W 074°01'0 0.1
2018-Aug-20 12:00N 40°40' W 074°01'1 1.3
2018-Aug-20 11:30N 40°41' W 074°01'1 1.3
2018-Aug-20 11:03N 40°41' W 074°01'0 0.3
2018-Aug-20 11:00N 40°41' W 074°01'2 4.6
2018-Aug-20 10:30N 40°40' W 074°03'3 6.3
2018-Aug-20 10:04N 40°39' W 074°06'110.9
2018-Aug-20 10:00N 40°39' W 074°07'4 8.2
2018-Aug-20 09:30N 40°37' W 074°12'0 0.1
2018-Aug-20 08:52N 40°37' W 074°12'1 2.2
2018-Aug-20 08:24N 40°38' W 074°12'1 2.0
2018-Aug-20 08:03N 40°37' W 074°12'0 9.8
2018-Aug-20 08:00N 40°37' W 074°12'1 2.3
2018-Aug-20 07:30N 40°36' W 074°12'0 0.0
2018-Aug-20 06:57N 40°36' W 074°12'0 0.0
2018-Aug-20 06:05N 40°36' W 074°12'0 0.0
2018-Aug-20 05:54N 40°36' W 074°12'0 0.0
2018-Aug-20 03:21N 40°36' W 074°12'0 0.0
2018-Aug-20 02:58N 40°36' W 074°12'3 7.4
2018-Aug-20 02:30N 40°39' W 074°10'3 5.4
2018-Aug-20 02:00N 40°39' W 074°07'0 0.1
2018-Aug-20 01:30N 40°39' W 074°07'2 3.7
2018-Aug-20 01:01N 40°39' W 074°04'3 5.3
2018-Aug-20 00:30N 40°40' W 074°01'0 0.0
2018-Aug-20 00:00N 40°40' W 074°01'0 0.0
2018-Aug-19 23:30N 40°40' W 074°01'0 0.0
2018-Aug-19 23:00N 40°40' W 074°01'0 0.0
2018-Aug-19 22:30N 40°40' W 074°01'0 0.0
2018-Aug-19 22:00N 40°40' W 074°01'0 0.0
2018-Aug-19 21:30N 40°40' W 074°01'0 0.0
2018-Aug-19 21:00N 40°40' W 074°01'0 0.0
2018-Aug-19 20:30N 40°40' W 074°01'0 0.1
2018-Aug-19 20:00N 40°40' W 074°01'0 0.0
2018-Aug-19 19:30N 40°40' W 074°01'0 0.1
2018-Aug-19 19:00N 40°40' W 074°01'0 0.0
2018-Aug-19 18:30N 40°40' W 074°01'0 0.0
2018-Aug-19 18:00N 40°40' W 074°01'0 0.0
2018-Aug-19 17:30N 40°40' W 074°01'0 0.0
2018-Aug-19 17:00N 40°40' W 074°01'0 0.0
2018-Aug-19 16:28N 40°40' W 074°01'0 0.0
2018-Aug-19 16:00N 40°40' W 074°01'0 0.0
2018-Aug-19 15:30N 40°40' W 074°01'0 0.0
2018-Aug-19 15:00N 40°40' W 074°01'0 0.0
2018-Aug-19 14:30N 40°40' W 074°01'0 0.0
2018-Aug-19 14:00N 40°40' W 074°01'0 0.0
2018-Aug-19 13:30N 40°40' W 074°01'0 0.0
2018-Aug-19 13:00N 40°40' W 074°01'0 0.0
2018-Aug-19 12:30N 40°40' W 074°01'0 0.0
2018-Aug-19 12:00N 40°40' W 074°01'0 0.0
2018-Aug-19 11:30N 40°40' W 074°01'0 0.0
2018-Aug-19 11:00N 40°40' W 074°01'0 0.0
2018-Aug-19 10:30N 40°40' W 074°01'0 0.0
2018-Aug-19 10:00N 40°40' W 074°01'0 0.0
2018-Aug-19 09:30N 40°40' W 074°01'0 0.0
2018-Aug-19 09:00N 40°40' W 074°01'0 0.0
2018-Aug-19 08:30N 40°40' W 074°01'0 0.0
2018-Aug-19 08:00N 40°40' W 074°01'0 0.0
2018-Aug-19 07:30N 40°40' W 074°01'0 0.0
2018-Aug-19 07:00N 40°40' W 074°01'0 0.0
2018-Aug-19 06:30N 40°40' W 074°01'0 0.0
2018-Aug-19 06:00N 40°40' W 074°01'0 0.0
2018-Aug-19 05:30N 40°40' W 074°01'0 0.0
2018-Aug-19 05:00N 40°40' W 074°01'0 0.0
2018-Aug-19 04:30N 40°40' W 074°01'0 0.3
2018-Aug-19 04:00N 40°40' W 074°01'0 0.0
2018-Aug-19 03:30N 40°40' W 074°01'0 0.0
2018-Aug-19 03:00N 40°40' W 074°01'0 0.0
2018-Aug-19 02:30N 40°40' W 074°01'0 0.0
2018-Aug-19 02:00N 40°40' W 074°01'0 0.0
2018-Aug-19 01:30N 40°40' W 074°01'0 0.0
2018-Aug-19 01:00N 40°40' W 074°01'0 0.0
2018-Aug-19 00:30N 40°40' W 074°01'0 0.0
2018-Aug-19 00:00N 40°40' W 074°01'0 0.0
2018-Aug-18 23:30N 40°40' W 074°01'0 0.0
2018-Aug-18 23:00N 40°40' W 074°01'1 1.9
2018-Aug-18 22:30N 40°40' W 074°02'1 1.2
2018-Aug-18 22:00N 40°39' W 074°03'3 6.1
2018-Aug-18 21:30N 40°42' W 074°00'3 6.5
2018-Aug-18 21:00N 40°45' W 073°58'3 0.7
2018-Aug-18 17:04N 40°47' W 073°56'213.1
2018-Aug-18 16:57N 40°45' W 073°57'510.4
2018-Aug-18 16:30N 40°42' W 074°01'4 8.6
2018-Aug-18 16:01N 40°39' W 074°05'2 3.8
2018-Aug-18 15:30N 40°38' W 074°08'0 0.0
2018-Aug-18 14:48N 40°38' W 074°08'0 0.0
2018-Aug-18 14:30N 40°38' W 074°08'0 0.0
2018-Aug-18 14:00N 40°38' W 074°08'0 0.0
2018-Aug-18 13:30N 40°38' W 074°08'0 0.0
2018-Aug-18 13:00N 40°38' W 074°08'0 0.0
2018-Aug-18 12:30N 40°38' W 074°08'0 0.0
2018-Aug-18 12:00N 40°38' W 074°08'0 0.0
2018-Aug-18 11:30N 40°38' W 074°08'0 0.0
2018-Aug-18 11:00N 40°38' W 074°08'0 0.0
2018-Aug-18 10:30N 40°38' W 074°08'0 0.0
2018-Aug-18 10:00N 40°38' W 074°08'0 0.0
2018-Aug-18 09:30N 40°38' W 074°08'0 0.0
2018-Aug-18 09:00N 40°38' W 074°08'0 0.0
2018-Aug-18 08:30N 40°38' W 074°08'0 0.0
2018-Aug-18 08:00N 40°38' W 074°08'0 0.0
2018-Aug-18 07:30N 40°38' W 074°08'0 0.0
2018-Aug-18 07:00N 40°38' W 074°08'0 0.0
2018-Aug-18 06:30N 40°38' W 074°08'0 0.0
2018-Aug-18 06:00N 40°38' W 074°08'0 0.0
2018-Aug-18 05:30N 40°38' W 074°08'0 0.0
2018-Aug-18 05:00N 40°38' W 074°08'0 0.0
2018-Aug-18 04:30N 40°38' W 074°08'0 0.0
2018-Aug-18 04:00N 40°38' W 074°08'0 0.0
2018-Aug-18 03:30N 40°38' W 074°08'0 0.0
2018-Aug-18 03:00N 40°38' W 074°08'0 0.0
2018-Aug-18 02:30N 40°38' W 074°08'0 0.0
2018-Aug-18 02:00N 40°38' W 074°08'0 0.0
2018-Aug-18 01:30N 40°38' W 074°08'0 0.0
2018-Aug-18 00:59N 40°38' W 074°08'0 0.2
2018-Aug-18 00:30N 40°39' W 074°08'0 0.2
2018-Aug-18 00:00N 40°38' W 074°08'0 0.0
2018-Aug-17 23:30N 40°38' W 074°08'0 0.0
2018-Aug-17 23:00N 40°38' W 074°08'0 0.0
2018-Aug-17 22:27N 40°38' W 074°08'0 0.0
2018-Aug-17 22:00N 40°38' W 074°08'2 3.5
2018-Aug-17 21:31N 40°39' W 074°05'4 7.2
2018-Aug-17 21:00N 40°40' W 074°01'0 0.2
2018-Aug-17 20:30N 40°40' W 074°01'0 0.0
2018-Aug-17 20:00N 40°40' W 074°01'0 0.0
2018-Aug-17 19:30N 40°40' W 074°01'1 1.1
2018-Aug-17 19:00N 40°41' W 074°02'3 5.7
2018-Aug-17 18:30N 40°39' W 074°05'2 4.3
2018-Aug-17 17:59N 40°38' W 074°08'0 0.1
2018-Aug-17 17:30N 40°38' W 074°08'0 0.0
2018-Aug-17 17:00N 40°38' W 074°08'0 0.1
2018-Aug-17 16:28N 40°38' W 074°08'0 0.0
2018-Aug-17 15:53N 40°38' W 074°08'0 0.0
2018-Aug-17 15:19N 40°38' W 074°08'2 7.0
2018-Aug-17 15:00N 40°39' W 074°05'3 6.4
2018-Aug-17 14:30N 40°40' W 074°01'0 0.2
2018-Aug-17 13:30N 40°40' W 074°01'0 0.2
2018-Aug-17 13:00N 40°40' W 074°01'0 0.6
2018-Aug-17 12:30N 40°40' W 074°01'0 0.0
2018-Aug-17 12:00N 40°40' W 074°01'0 0.0
2018-Aug-17 11:31N 40°40' W 074°01'0 0.0
2018-Aug-17 11:00N 40°40' W 074°01'0 0.0
2018-Aug-17 10:30N 40°40' W 074°01'0 0.0
2018-Aug-17 10:00N 40°40' W 074°01'0 0.0
2018-Aug-17 09:30N 40°40' W 074°01'0 0.0
2018-Aug-17 09:00N 40°40' W 074°01'0 0.0
2018-Aug-17 08:30N 40°40' W 074°01'0 0.0
2018-Aug-17 08:00N 40°40' W 074°01'0 0.0
2018-Aug-17 07:30N 40°40' W 074°01'0 0.0
2018-Aug-17 07:00N 40°40' W 074°01'0 0.0
2018-Aug-17 06:30N 40°40' W 074°01'0 0.0
2018-Aug-17 06:00N 40°40' W 074°01'0 0.0
2018-Aug-17 05:30N 40°40' W 074°01'0 0.0
2018-Aug-17 05:00N 40°40' W 074°01'0 0.0
2018-Aug-17 04:30N 40°40' W 074°01'0 0.0
2018-Aug-17 04:00N 40°40' W 074°01'0 0.0
2018-Aug-17 03:30N 40°40' W 074°01'0 0.0
2018-Aug-17 03:00N 40°40' W 074°01'0 0.0
2018-Aug-17 02:30N 40°40' W 074°01'0 0.0
2018-Aug-17 02:00N 40°40' W 074°01'0 0.0
2018-Aug-17 01:30N 40°40' W 074°01'0 0.0
2018-Aug-17 01:00N 40°40' W 074°01'0 0.0
2018-Aug-17 00:30N 40°40' W 074°01'0 0.0
2018-Aug-17 00:00N 40°40' W 074°01'0 0.0
2018-Aug-16 23:30N 40°40' W 074°01'0 0.0
2018-Aug-16 23:00N 40°40' W 074°01'0 0.0
2018-Aug-16 22:30N 40°40' W 074°01'0 0.0
2018-Aug-16 22:00N 40°40' W 074°01'0 0.0
2018-Aug-16 21:30N 40°40' W 074°01'0 0.0
2018-Aug-16 21:00N 40°40' W 074°01'0 0.0
2018-Aug-16 20:30N 40°40' W 074°01'0 0.0
2018-Aug-16 20:00N 40°40' W 074°01'0 0.0
2018-Aug-16 19:30N 40°40' W 074°01'0 0.0
2018-Aug-16 19:00N 40°40' W 074°01'0 0.0
2018-Aug-16 18:30N 40°40' W 074°01'0 0.0
2018-Aug-16 18:00N 40°40' W 074°01'0 0.0
2018-Aug-16 17:30N 40°40' W 074°01'0 0.0
2018-Aug-16 17:00N 40°40' W 074°01'0 0.0
2018-Aug-16 16:30N 40°40' W 074°01'0 0.0
2018-Aug-16 16:00N 40°40' W 074°01'0 0.0
2018-Aug-16 15:30N 40°40' W 074°01'0 0.0
2018-Aug-16 15:00N 40°40' W 074°01'0 0.0
2018-Aug-16 14:30N 40°40' W 074°01'0 0.0
2018-Aug-16 14:00N 40°40' W 074°01'0 0.0
2018-Aug-16 13:30N 40°40' W 074°01'0 0.1
2018-Aug-16 13:00N 40°40' W 074°01'0 0.0
2018-Aug-16 12:30N 40°40' W 074°01'0 0.0
2018-Aug-16 12:00N 40°40' W 074°01'3 5.1
2018-Aug-16 11:31N 40°39' W 074°04'1 1.5
2018-Aug-16 11:00N 40°39' W 074°05'0 0.4
2018-Aug-16 10:30N 40°39' W 074°05'2 4.4
2018-Aug-16 10:00N 40°38' W 074°08'0 0.0
2018-Aug-16 09:28N 40°38' W 074°08'0 0.0
2018-Aug-16 08:36N 40°38' W 074°08'0 0.0
2018-Aug-16 08:27N 40°38' W 074°08'0 0.0
2018-Aug-16 07:48N 40°38' W 074°08'0 0.0
2018-Aug-16 07:30N 40°38' W 074°08'0 0.0
2018-Aug-16 06:57N 40°38' W 074°08'0 0.0
2018-Aug-16 06:30N 40°38' W 074°08'0 0.0
2018-Aug-16 05:48N 40°38' W 074°08'0 0.0
2018-Aug-16 05:27N 40°38' W 074°08'1 2.1
2018-Aug-16 05:00N 40°39' W 074°07'0 0.1
2018-Aug-16 04:30N 40°39' W 074°07'0 0.0
2018-Aug-16 04:00N 40°39' W 074°07'1 2.0
2018-Aug-16 03:30N 40°38' W 074°08'0 0.0
2018-Aug-16 02:58N 40°38' W 074°08'0 0.0
2018-Aug-16 02:24N 40°38' W 074°08'0 0.0
2018-Aug-16 02:00N 40°38' W 074°08'0 0.0
2018-Aug-16 01:30N 40°38' W 074°08'0 0.0
2018-Aug-16 00:24N 40°38' W 074°08'0 0.2
2018-Aug-16 00:00N 40°39' W 074°08'0 0.1
2018-Aug-15 23:27N 40°38' W 074°08'0 0.0
2018-Aug-15 22:54N 40°38' W 074°08'1 1.9
2018-Aug-15 22:29N 40°39' W 074°07'0 0.4
2018-Aug-15 22:00N 40°39' W 074°07'1 1.4
2018-Aug-15 21:30N 40°38' W 074°08'0 0.0
2018-Aug-15 20:59N 40°38' W 074°08'0 0.0
2018-Aug-15 20:30N 40°38' W 074°08'0 0.0
2018-Aug-15 20:00N 40°38' W 074°08'0 0.0
2018-Aug-15 19:30N 40°38' W 074°08'1 2.6
2018-Aug-15 18:59N 40°39' W 074°06'0 0.1
2018-Aug-15 18:24N 40°39' W 074°06'1 3.3
2018-Aug-15 18:00N 40°38' W 074°08'0 0.0
2018-Aug-15 17:30N 40°38' W 074°08'0 0.0
2018-Aug-15 16:54N 40°38' W 074°08'0 0.0
2018-Aug-15 16:21N 40°38' W 074°08'0 0.0
2018-Aug-15 16:00N 40°38' W 074°08'0 0.0
2018-Aug-15 15:27N 40°38' W 074°08'0 0.0
2018-Aug-15 15:00N 40°38' W 074°08'0 0.0
2018-Aug-15 14:30N 40°38' W 074°08'2 0.2
2018-Aug-15 00:45N 40°39' W 074°11'2 9.3
2018-Aug-15 00:31N 40°39' W 074°08'0 0.2
2018-Aug-15 00:00N 40°38' W 074°08'0 0.0
2018-Aug-14 23:30N 40°38' W 074°08'0 0.1
2018-Aug-14 22:59N 40°38' W 074°08'0 0.0
2018-Aug-14 22:14N 40°38' W 074°08'0 0.0
2018-Aug-14 21:59N 40°38' W 074°08'0 0.0
2018-Aug-14 21:25N 40°38' W 074°08'0 0.0
2018-Aug-14 20:44N 40°38' W 074°08'0 0.0
2018-Aug-14 20:30N 40°38' W 074°08'0 0.0
2018-Aug-14 20:00N 40°38' W 074°08'0 0.0
2018-Aug-14 19:30N 40°38' W 074°08'0 0.0
2018-Aug-14 19:00N 40°38' W 074°08'0 0.0
2018-Aug-14 18:30N 40°38' W 074°08'0 0.0
2018-Aug-14 18:00N 40°38' W 074°08'0 0.0
2018-Aug-14 17:31N 40°38' W 074°08'0 0.0
2018-Aug-14 17:00N 40°38' W 074°08'4 6.8
2018-Aug-14 16:30N 40°37' W 074°12'0 0.0
2018-Aug-13 00:09N 40°37' W 074°12'0 0.9
2018-Aug-12 23:40N 40°38' W 074°12'2 0.4
2018-Aug-12 19:28N 40°36' W 074°12'0 0.0
2018-Aug-12 18:59N 40°36' W 074°12'2 3.9
2018-Aug-12 18:26N 40°38' W 074°12'3 8.2
2018-Aug-12 18:00N 40°39' W 074°08'3 5.6
2018-Aug-12 17:30N 40°39' W 074°11'3 1.1
2018-Aug-12 14:56N 40°36' W 074°12'0 0.0
2018-Aug-12 14:25N 40°36' W 074°12'0 0.0
2018-Aug-12 14:01N 40°36' W 074°12'0 0.0
2018-Aug-12 13:27N 40°36' W 074°12'0 0.0
2018-Aug-12 12:48N 40°36' W 074°12'0 0.0
2018-Aug-12 12:17N 40°36' W 074°12'0 0.0
2018-Aug-12 11:55N 40°36' W 074°12'0 0.0
2018-Aug-12 11:19N 40°36' W 074°12'0 0.0
2018-Aug-12 11:00N 40°36' W 074°12'4 1.0
2018-Aug-12 06:36N 40°32' W 074°15'0 0.2
2018-Aug-12 03:42N 40°33' W 074°15'3 8.8
2018-Aug-12 03:23N 40°35' W 074°13'4 8.8
2018-Aug-12 02:59N 40°38' W 074°12'3 6.6
2018-Aug-12 02:30N 40°38' W 074°08'0 0.1
2018-Aug-12 01:56N 40°38' W 074°08'0 0.0
2018-Aug-12 01:30N 40°38' W 074°08'0 0.0
2018-Aug-12 01:00N 40°38' W 074°08'0 0.0
2018-Aug-12 00:30N 40°38' W 074°08'0 0.0
2018-Aug-12 00:00N 40°38' W 074°08'0 0.0
2018-Aug-11 23:30N 40°38' W 074°08'0 0.0
2018-Aug-11 23:00N 40°38' W 074°08'0 0.0
2018-Aug-11 22:30N 40°38' W 074°08'0 0.0
2018-Aug-11 22:00N 40°38' W 074°08'0 0.0
2018-Aug-11 21:30N 40°38' W 074°08'0 0.0
2018-Aug-11 21:00N 40°38' W 074°08'0 0.0
2018-Aug-11 20:30N 40°38' W 074°08'0 0.0
2018-Aug-11 20:00N 40°38' W 074°08'0 0.0
2018-Aug-11 19:28N 40°38' W 074°08'0 0.0
2018-Aug-11 19:00N 40°38' W 074°08'0 0.1
2018-Aug-11 18:30N 40°39' W 074°08'0 0.1
2018-Aug-11 17:58N 40°38' W 074°08'0 0.0
2018-Aug-11 17:28N 40°38' W 074°08'0 0.0
2018-Aug-11 16:59N 40°38' W 074°08'0 0.0
2018-Aug-11 16:27N 40°38' W 074°08'0 0.0
2018-Aug-11 15:59N 40°38' W 074°08'1 1.4
2018-Aug-11 15:30N 40°38' W 074°09'4 0.6
2018-Aug-11 09:23N 40°36' W 074°12'1 1.4
2018-Aug-11 08:56N 40°36' W 074°12'0 0.1
2018-Aug-11 08:30N 40°36' W 074°12'0 0.0
2018-Aug-11 07:57N 40°36' W 074°12'1 0.2
2018-Aug-11 03:44N 40°37' W 074°12'2 8.5
2018-Aug-11 03:30N 40°39' W 074°10'4 7.5
2018-Aug-11 03:00N 40°39' W 074°05'4 7.3
2018-Aug-11 02:30N 40°40' W 074°01'0 0.1
2018-Aug-11 02:00N 40°40' W 074°01'0 0.0
2018-Aug-11 01:30N 40°40' W 074°01'0 0.3
2018-Aug-11 01:01N 40°40' W 074°01'2 4.6
2018-Aug-11 00:30N 40°39' W 074°04'2 4.2
2018-Aug-10 23:59N 40°39' W 074°06'0 0.0
2018-Aug-10 23:31N 40°39' W 074°06'1 2.1
2018-Aug-10 23:00N 40°38' W 074°08'0 0.1
2018-Aug-10 22:30N 40°38' W 074°08'0 0.0
2018-Aug-10 22:00N 40°38' W 074°08'0 0.5
2018-Aug-10 21:30N 40°39' W 074°08'4 7.0
2018-Aug-10 21:00N 40°37' W 074°12'  

Dump ship's entire track history